sensor_id;sensor_type;location;lat;lon;timestamp;temperature;humidity
22130;DHT22;11231;50.746;4.272;2023-06-19T00:02:17;20.60;99.90
22130;DHT22;11231;50.746;4.272;2023-06-19T00:04:43;20.60;99.90
22130;DHT22;11231;50.746;4.272;2023-06-19T00:07:09;20.70;99.90
22130;DHT22;11231;50.746;4.272;2023-06-19T00:09:35;20.70;99.90
22130;DHT22;11231;50.746;4.272;2023-06-19T00:12:00;20.60;99.90
22130;DHT22;11231;50.746;4.272;2023-06-19T00:14:27;20.60;99.90
22130;DHT22;11231;50.746;4.272;2023-06-19T00:16:52;20.50;99.90
22130;DHT22;11231;50.746;4.272;2023-06-19T00:19:18;20.40;99.90
22130;DHT22;11231;50.746;4.272;2023-06-19T00:21:44;20.40;99.90
22130;DHT22;11231;50.746;4.272;2023-06-19T00:24:10;20.40;99.90
22130;DHT22;11231;50.746;4.272;2023-06-19T00:26:36;20.20;99.90
22130;DHT22;11231;50.746;4.272;2023-06-19T00:29:02;20.00;99.90
22130;DHT22;11231;50.746;4.272;2023-06-19T00:31:28;19.90;99.90
22130;DHT22;11231;50.746;4.272;2023-06-19T00:33:54;19.70;99.90
22130;DHT22;11231;50.746;4.272;2023-06-19T00:36:20;19.70;99.90
22130;DHT22;11231;50.746;4.272;2023-06-19T00:38:47;19.80;99.90
22130;DHT22;11231;50.746;4.272;2023-06-19T00:41:14;19.90;99.90
22130;DHT22;11231;50.746;4.272;2023-06-19T00:43:42;20.00;99.90
22130;DHT22;11231;50.746;4.272;2023-06-19T00:46:08;20.00;99.90
22130;DHT22;11231;50.746;4.272;2023-06-19T00:48:34;20.00;99.90
22130;DHT22;11231;50.746;4.272;2023-06-19T00:51:00;20.00;99.90
22130;DHT22;11231;50.746;4.272;2023-06-19T00:53:26;20.00;99.90
22130;DHT22;11231;50.746;4.272;2023-06-19T00:55:53;20.00;99.90
22130;DHT22;11231;50.746;4.272;2023-06-19T00:58:21;20.00;99.90
22130;DHT22;11231;50.746;4.272;2023-06-19T01:00:47;20.10;99.90
22130;DHT22;11231;50.746;4.272;2023-06-19T01:03:13;20.30;99.90
22130;DHT22;11231;50.746;4.272;2023-06-19T01:05:39;20.30;99.90
22130;DHT22;11231;50.746;4.272;2023-06-19T01:10:54;20.20;99.90
22130;DHT22;11231;50.746;4.272;2023-06-19T01:13:39;20.20;99.90
22130;DHT22;11231;50.746;4.272;2023-06-19T01:16:07;20.20;99.90
22130;DHT22;11231;50.746;4.272;2023-06-19T01:18:34;20.20;99.90
22130;DHT22;11231;50.746;4.272;2023-06-19T01:21:15;20.20;99.90
22130;DHT22;11231;50.746;4.272;2023-06-19T01:23:41;20.20;99.90
22130;DHT22;11231;50.746;4.272;2023-06-19T01:26:07;20.20;99.90
22130;DHT22;11231;50.746;4.272;2023-06-19T01:28:36;20.10;99.90
22130;DHT22;11231;50.746;4.272;2023-06-19T01:31:11;20.20;99.90
22130;DHT22;11231;50.746;4.272;2023-06-19T01:33:40;20.30;99.90
22130;DHT22;11231;50.746;4.272;2023-06-19T01:36:09;20.30;99.90
22130;DHT22;11231;50.746;4.272;2023-06-19T01:38:36;20.30;99.90
22130;DHT22;11231;50.746;4.272;2023-06-19T01:41:02;20.30;99.90
22130;DHT22;11231;50.746;4.272;2023-06-19T01:43:30;20.40;99.90
22130;DHT22;11231;50.746;4.272;2023-06-19T01:45:58;20.30;99.90
22130;DHT22;11231;50.746;4.272;2023-06-19T01:48:24;20.30;99.90
22130;DHT22;11231;50.746;4.272;2023-06-19T01:50:50;20.30;99.90
22130;DHT22;11231;50.746;4.272;2023-06-19T01:53:16;20.30;99.90
22130;DHT22;11231;50.746;4.272;2023-06-19T01:55:42;20.30;99.90
22130;DHT22;11231;50.746;4.272;2023-06-19T01:58:08;20.30;99.90
22130;DHT22;11231;50.746;4.272;2023-06-19T02:00:34;20.30;99.90
22130;DHT22;11231;50.746;4.272;2023-06-19T02:03:03;20.30;99.90
22130;DHT22;11231;50.746;4.272;2023-06-19T02:05:30;20.40;99.90
22130;DHT22;11231;50.746;4.272;2023-06-19T02:07:56;20.40;99.90
22130;DHT22;11231;50.746;4.272;2023-06-19T02:10:21;20.40;99.90
22130;DHT22;11231;50.746;4.272;2023-06-19T02:12:47;20.50;99.90
22130;DHT22;11231;50.746;4.272;2023-06-19T02:15:13;20.50;99.90
22130;DHT22;11231;50.746;4.272;2023-06-19T02:17:38;20.60;99.90
22130;DHT22;11231;50.746;4.272;2023-06-19T02:20:05;20.50;99.90
22130;DHT22;11231;50.746;4.272;2023-06-19T02:22:34;20.50;99.90
22130;DHT22;11231;50.746;4.272;2023-06-19T02:25:00;20.40;99.90
22130;DHT22;11231;50.746;4.272;2023-06-19T02:27:25;20.40;99.90
22130;DHT22;11231;50.746;4.272;2023-06-19T02:29:51;20.40;99.90
22130;DHT22;11231;50.746;4.272;2023-06-19T02:32:19;20.30;99.90
22130;DHT22;11231;50.746;4.272;2023-06-19T02:34:45;20.30;99.90
22130;DHT22;11231;50.746;4.272;2023-06-19T02:37:11;20.30;99.90
22130;DHT22;11231;50.746;4.272;2023-06-19T02:39:36;20.30;99.90
22130;DHT22;11231;50.746;4.272;2023-06-19T02:42:02;20.30;99.90
22130;DHT22;11231;50.746;4.272;2023-06-19T02:44:28;20.40;99.90
22130;DHT22;11231;50.746;4.272;2023-06-19T02:46:54;20.50;99.90
22130;DHT22;11231;50.746;4.272;2023-06-19T02:49:19;20.60;99.90
22130;DHT22;11231;50.746;4.272;2023-06-19T02:51:45;20.60;99.90
22130;DHT22;11231;50.746;4.272;2023-06-19T02:54:11;20.60;99.90
22130;DHT22;11231;50.746;4.272;2023-06-19T02:56:38;20.60;99.90
22130;DHT22;11231;50.746;4.272;2023-06-19T02:59:03;20.50;99.90
22130;DHT22;11231;50.746;4.272;2023-06-19T03:01:30;20.50;99.90
22130;DHT22;11231;50.746;4.272;2023-06-19T03:03:56;20.50;99.90
22130;DHT22;11231;50.746;4.272;2023-06-19T03:06:21;20.50;99.90
22130;DHT22;11231;50.746;4.272;2023-06-19T03:08:47;20.50;99.90
22130;DHT22;11231;50.746;4.272;2023-06-19T03:11:13;20.50;99.90
22130;DHT22;11231;50.746;4.272;2023-06-19T03:13:50;20.60;99.90
22130;DHT22;11231;50.746;4.272;2023-06-19T03:16:18;20.60;99.90
22130;DHT22;11231;50.746;4.272;2023-06-19T03:18:44;20.60;99.90
22130;DHT22;11231;50.746;4.272;2023-06-19T03:21:11;20.60;99.90
22130;DHT22;11231;50.746;4.272;2023-06-19T03:23:37;20.50;99.90
22130;DHT22;11231;50.746;4.272;2023-06-19T03:26:04;20.40;99.90
22130;DHT22;11231;50.746;4.272;2023-06-19T03:28:30;20.40;99.90
22130;DHT22;11231;50.746;4.272;2023-06-19T03:30:57;20.50;99.90
22130;DHT22;11231;50.746;4.272;2023-06-19T03:33:24;20.50;99.90
22130;DHT22;11231;50.746;4.272;2023-06-19T03:35:50;20.50;99.90
22130;DHT22;11231;50.746;4.272;2023-06-19T03:38:30;20.50;99.90
22130;DHT22;11231;50.746;4.272;2023-06-19T03:40:56;20.50;99.90
22130;DHT22;11231;50.746;4.272;2023-06-19T03:43:21;20.50;99.90
22130;DHT22;11231;50.746;4.272;2023-06-19T03:45:47;20.50;99.90
22130;DHT22;11231;50.746;4.272;2023-06-19T03:48:13;20.50;99.90
22130;DHT22;11231;50.746;4.272;2023-06-19T03:50:39;20.40;99.90
22130;DHT22;11231;50.746;4.272;2023-06-19T03:53:06;20.40;99.90
22130;DHT22;11231;50.746;4.272;2023-06-19T03:55:32;20.30;99.90
22130;DHT22;11231;50.746;4.272;2023-06-19T03:57:58;20.40;99.90
22130;DHT22;11231;50.746;4.272;2023-06-19T04:00:23;20.40;99.90
22130;DHT22;11231;50.746;4.272;2023-06-19T04:02:49;20.30;99.90
22130;DHT22;11231;50.746;4.272;2023-06-19T04:05:15;20.30;99.90
22130;DHT22;11231;50.746;4.272;2023-06-19T04:07:42;20.30;99.90
22130;DHT22;11231;50.746;4.272;2023-06-19T04:10:08;20.30;99.90
22130;DHT22;11231;50.746;4.272;2023-06-19T04:12:34;20.20;99.90
22130;DHT22;11231;50.746;4.272;2023-06-19T04:15:00;20.20;99.90
22130;DHT22;11231;50.746;4.272;2023-06-19T04:17:25;20.10;99.90
22130;DHT22;11231;50.746;4.272;2023-06-19T04:19:51;20.10;99.90
22130;DHT22;11231;50.746;4.272;2023-06-19T04:22:19;20.10;99.90
22130;DHT22;11231;50.746;4.272;2023-06-19T04:24:44;20.10;99.90
22130;DHT22;11231;50.746;4.272;2023-06-19T04:27:10;20.20;99.90
22130;DHT22;11231;50.746;4.272;2023-06-19T04:29:37;20.30;99.90
22130;DHT22;11231;50.746;4.272;2023-06-19T04:32:03;20.50;99.90
22130;DHT22;11231;50.746;4.272;2023-06-19T04:34:37;20.70;99.90
22130;DHT22;11231;50.746;4.272;2023-06-19T04:37:04;20.90;99.90
22130;DHT22;11231;50.746;4.272;2023-06-19T04:39:29;21.50;99.90
22130;DHT22;11231;50.746;4.272;2023-06-19T04:41:55;21.90;99.90
22130;DHT22;11231;50.746;4.272;2023-06-19T04:44:21;22.50;99.90
22130;DHT22;11231;50.746;4.272;2023-06-19T04:46:47;23.00;99.90
22130;DHT22;11231;50.746;4.272;2023-06-19T04:49:13;23.30;99.90
22130;DHT22;11231;50.746;4.272;2023-06-19T04:51:40;23.50;99.90
22130;DHT22;11231;50.746;4.272;2023-06-19T04:54:06;23.90;99.90
22130;DHT22;11231;50.746;4.272;2023-06-19T04:56:32;24.40;99.90
22130;DHT22;11231;50.746;4.272;2023-06-19T04:58:58;25.00;99.90
22130;DHT22;11231;50.746;4.272;2023-06-19T05:01:26;25.30;99.90
22130;DHT22;11231;50.746;4.272;2023-06-19T05:03:56;25.40;99.90
22130;DHT22;11231;50.746;4.272;2023-06-19T05:06:25;26.00;99.90
22130;DHT22;11231;50.746;4.272;2023-06-19T05:08:51;26.90;99.90
22130;DHT22;11231;50.746;4.272;2023-06-19T05:11:18;27.20;99.90
22130;DHT22;11231;50.746;4.272;2023-06-19T05:13:43;27.00;99.90
22130;DHT22;11231;50.746;4.272;2023-06-19T05:16:09;27.00;99.90
22130;DHT22;11231;50.746;4.272;2023-06-19T05:18:36;27.40;99.90
22130;DHT22;11231;50.746;4.272;2023-06-19T05:21:02;28.00;99.90
22130;DHT22;11231;50.746;4.272;2023-06-19T05:23:28;27.20;99.90
22130;DHT22;11231;50.746;4.272;2023-06-19T05:25:54;26.40;99.90
22130;DHT22;11231;50.746;4.272;2023-06-19T05:28:19;25.60;99.90
22130;DHT22;11231;50.746;4.272;2023-06-19T05:30:45;24.80;99.90
22130;DHT22;11231;50.746;4.272;2023-06-19T05:33:10;24.00;99.90
22130;DHT22;11231;50.746;4.272;2023-06-19T05:35:42;23.40;99.90
22130;DHT22;11231;50.746;4.272;2023-06-19T05:38:08;22.70;99.90
22130;DHT22;11231;50.746;4.272;2023-06-19T05:40:34;22.40;99.90
22130;DHT22;11231;50.746;4.272;2023-06-19T05:43:00;22.10;99.90
22130;DHT22;11231;50.746;4.272;2023-06-19T05:45:26;21.70;99.90
22130;DHT22;11231;50.746;4.272;2023-06-19T05:47:52;21.50;99.90
22130;DHT22;11231;50.746;4.272;2023-06-19T05:50:18;21.40;99.90
22130;DHT22;11231;50.746;4.272;2023-06-19T05:52:43;21.30;99.90
22130;DHT22;11231;50.746;4.272;2023-06-19T05:55:10;21.10;99.90
22130;DHT22;11231;50.746;4.272;2023-06-19T05:57:36;20.90;99.90
22130;DHT22;11231;50.746;4.272;2023-06-19T06:00:03;20.80;99.90
22130;DHT22;11231;50.746;4.272;2023-06-19T06:02:38;20.90;99.90
22130;DHT22;11231;50.746;4.272;2023-06-19T06:05:04;20.90;99.90
22130;DHT22;11231;50.746;4.272;2023-06-19T06:07:30;20.80;99.90
22130;DHT22;11231;50.746;4.272;2023-06-19T06:09:55;20.70;99.90
22130;DHT22;11231;50.746;4.272;2023-06-19T06:12:21;20.90;99.90
22130;DHT22;11231;50.746;4.272;2023-06-19T06:14:47;21.00;99.90
22130;DHT22;11231;50.746;4.272;2023-06-19T06:17:12;21.10;99.90
22130;DHT22;11231;50.746;4.272;2023-06-19T06:19:38;21.20;99.90
22130;DHT22;11231;50.746;4.272;2023-06-19T06:22:04;21.30;99.90
22130;DHT22;11231;50.746;4.272;2023-06-19T06:24:30;21.50;99.90
22130;DHT22;11231;50.746;4.272;2023-06-19T06:26:56;21.50;99.90
22130;DHT22;11231;50.746;4.272;2023-06-19T06:29:21;21.60;99.90
22130;DHT22;11231;50.746;4.272;2023-06-19T06:31:47;21.50;99.90
22130;DHT22;11231;50.746;4.272;2023-06-19T06:34:13;21.30;99.90
22130;DHT22;11231;50.746;4.272;2023-06-19T06:36:39;21.00;99.90
22130;DHT22;11231;50.746;4.272;2023-06-19T06:39:05;21.00;99.90
22130;DHT22;11231;50.746;4.272;2023-06-19T06:41:31;21.10;99.90
22130;DHT22;11231;50.746;4.272;2023-06-19T06:43:57;21.20;99.90
22130;DHT22;11231;50.746;4.272;2023-06-19T06:46:23;21.40;99.90
22130;DHT22;11231;50.746;4.272;2023-06-19T06:48:49;21.80;99.90
22130;DHT22;11231;50.746;4.272;2023-06-19T06:51:15;22.20;99.90
22130;DHT22;11231;50.746;4.272;2023-06-19T06:53:41;22.30;99.90
22130;DHT22;11231;50.746;4.272;2023-06-19T06:56:06;22.80;99.90
22130;DHT22;11231;50.746;4.272;2023-06-19T06:58:32;23.70;99.90
22130;DHT22;11231;50.746;4.272;2023-06-19T07:00:58;24.80;99.90
22130;DHT22;11231;50.746;4.272;2023-06-19T07:03:23;25.20;99.90
22130;DHT22;11231;50.746;4.272;2023-06-19T07:05:49;25.00;99.90
22130;DHT22;11231;50.746;4.272;2023-06-19T07:08:15;25.00;99.90
22130;DHT22;11231;50.746;4.272;2023-06-19T07:10:41;25.20;99.90
22130;DHT22;11231;50.746;4.272;2023-06-19T07:13:06;25.40;99.90
22130;DHT22;11231;50.746;4.272;2023-06-19T07:15:32;25.50;99.90
22130;DHT22;11231;50.746;4.272;2023-06-19T07:17:58;25.10;99.90
22130;DHT22;11231;50.746;4.272;2023-06-19T07:20:23;25.20;99.90
22130;DHT22;11231;50.746;4.272;2023-06-19T07:22:51;24.90;99.90
22130;DHT22;11231;50.746;4.272;2023-06-19T07:25:17;24.60;99.90
22130;DHT22;11231;50.746;4.272;2023-06-19T07:27:43;24.90;99.90
22130;DHT22;11231;50.746;4.272;2023-06-19T07:30:09;25.40;99.90
22130;DHT22;11231;50.746;4.272;2023-06-19T07:32:37;25.50;99.90
22130;DHT22;11231;50.746;4.272;2023-06-19T07:35:03;25.60;99.90
22130;DHT22;11231;50.746;4.272;2023-06-19T07:37:29;25.70;99.90
22130;DHT22;11231;50.746;4.272;2023-06-19T07:39:55;25.30;99.90
22130;DHT22;11231;50.746;4.272;2023-06-19T07:42:21;25.10;99.90
22130;DHT22;11231;50.746;4.272;2023-06-19T07:44:47;25.00;99.90
22130;DHT22;11231;50.746;4.272;2023-06-19T07:47:13;25.00;99.90
22130;DHT22;11231;50.746;4.272;2023-06-19T07:49:39;25.50;99.90
22130;DHT22;11231;50.746;4.272;2023-06-19T07:52:05;25.60;99.90
22130;DHT22;11231;50.746;4.272;2023-06-19T07:54:33;25.90;99.90
22130;DHT22;11231;50.746;4.272;2023-06-19T07:56:59;26.00;99.90
22130;DHT22;11231;50.746;4.272;2023-06-19T07:59:24;26.40;99.90
22130;DHT22;11231;50.746;4.272;2023-06-19T08:01:50;26.80;99.90
22130;DHT22;11231;50.746;4.272;2023-06-19T08:04:16;27.00;99.90
22130;DHT22;11231;50.746;4.272;2023-06-19T08:06:41;26.80;99.90
22130;DHT22;11231;50.746;4.272;2023-06-19T08:09:07;27.80;99.90
22130;DHT22;11231;50.746;4.272;2023-06-19T08:11:33;28.60;99.90
22130;DHT22;11231;50.746;4.272;2023-06-19T08:14:01;27.90;99.90
22130;DHT22;11231;50.746;4.272;2023-06-19T08:16:26;27.70;99.90
22130;DHT22;11231;50.746;4.272;2023-06-19T08:18:52;27.90;99.90
22130;DHT22;11231;50.746;4.272;2023-06-19T08:21:18;28.80;99.90
22130;DHT22;11231;50.746;4.272;2023-06-19T08:23:45;27.70;99.90
22130;DHT22;11231;50.746;4.272;2023-06-19T08:26:11;28.50;99.90
22130;DHT22;11231;50.746;4.272;2023-06-19T08:28:37;29.00;99.90
22130;DHT22;11231;50.746;4.272;2023-06-19T08:31:03;29.00;99.90
22130;DHT22;11231;50.746;4.272;2023-06-19T08:33:29;30.20;99.90
22130;DHT22;11231;50.746;4.272;2023-06-19T08:35:55;30.00;99.90
22130;DHT22;11231;50.746;4.272;2023-06-19T08:38:21;30.20;99.90
22130;DHT22;11231;50.746;4.272;2023-06-19T08:40:46;30.10;99.90
22130;DHT22;11231;50.746;4.272;2023-06-19T08:43:12;29.40;99.90
22130;DHT22;11231;50.746;4.272;2023-06-19T08:45:39;30.20;99.90
22130;DHT22;11231;50.746;4.272;2023-06-19T08:48:05;30.80;99.90
22130;DHT22;11231;50.746;4.272;2023-06-19T08:50:38;31.40;99.90
22130;DHT22;11231;50.746;4.272;2023-06-19T08:53:04;33.10;99.90
22130;DHT22;11231;50.746;4.272;2023-06-19T08:55:30;32.90;99.90
22130;DHT22;11231;50.746;4.272;2023-06-19T08:57:55;33.10;99.90
22130;DHT22;11231;50.746;4.272;2023-06-19T09:00:26;33.70;99.90
22130;DHT22;11231;50.746;4.272;2023-06-19T09:02:52;32.60;98.80
22130;DHT22;11231;50.746;4.272;2023-06-19T09:05:23;31.30;99.90
22130;DHT22;11231;50.746;4.272;2023-06-19T09:07:55;31.70;99.90
22130;DHT22;11231;50.746;4.272;2023-06-19T09:10:22;32.50;99.80
22130;DHT22;11231;50.746;4.272;2023-06-19T09:13:03;33.60;99.10
22130;DHT22;11231;50.746;4.272;2023-06-19T09:15:36;34.30;98.00
22130;DHT22;11231;50.746;4.272;2023-06-19T09:18:12;34.90;96.70
22130;DHT22;11231;50.746;4.272;2023-06-19T09:20:40;35.00;94.40
22130;DHT22;11231;50.746;4.272;2023-06-19T09:23:17;35.10;92.90
22130;DHT22;11231;50.746;4.272;2023-06-19T09:25:51;33.80;93.50
22130;DHT22;11231;50.746;4.272;2023-06-19T09:31:02;31.30;95.90
22130;DHT22;11231;50.746;4.272;2023-06-19T09:33:33;30.00;98.00
22130;DHT22;11231;50.746;4.272;2023-06-19T09:35:59;29.80;99.90
22130;DHT22;11231;50.746;4.272;2023-06-19T09:38:27;29.70;99.90
22130;DHT22;11231;50.746;4.272;2023-06-19T09:40:53;29.80;99.90
22130;DHT22;11231;50.746;4.272;2023-06-19T09:43:23;30.10;99.90
22130;DHT22;11231;50.746;4.272;2023-06-19T09:45:49;29.30;99.90
22130;DHT22;11231;50.746;4.272;2023-06-19T09:48:19;28.40;99.90
22130;DHT22;11231;50.746;4.272;2023-06-19T09:50:54;28.90;99.90
22130;DHT22;11231;50.746;4.272;2023-06-19T09:53:22;29.80;99.90
22130;DHT22;11231;50.746;4.272;2023-06-19T09:55:49;30.40;99.90
22130;DHT22;11231;50.746;4.272;2023-06-19T09:58:20;29.90;99.90
22130;DHT22;11231;50.746;4.272;2023-06-19T10:00:47;29.60;99.90
22130;DHT22;11231;50.746;4.272;2023-06-19T10:03:13;29.30;99.90
22130;DHT22;11231;50.746;4.272;2023-06-19T10:05:39;29.60;99.90
22130;DHT22;11231;50.746;4.272;2023-06-19T10:08:06;31.40;99.90
22130;DHT22;11231;50.746;4.272;2023-06-19T10:10:32;33.10;98.40
22130;DHT22;11231;50.746;4.272;2023-06-19T10:13:11;33.60;96.80
22130;DHT22;11231;50.746;4.272;2023-06-19T10:15:43;35.00;93.70
22130;DHT22;11231;50.746;4.272;2023-06-19T10:18:17;35.10;93.00
22130;DHT22;11231;50.746;4.272;2023-06-19T10:20:44;34.50;92.20
22130;DHT22;11231;50.746;4.272;2023-06-19T10:23:22;33.80;92.10
22130;DHT22;11231;50.746;4.272;2023-06-19T10:25:56;33.60;93.60
22130;DHT22;11231;50.746;4.272;2023-06-19T10:28:31;35.60;92.60
22130;DHT22;11231;50.746;4.272;2023-06-19T10:31:08;35.50;90.10
22130;DHT22;11231;50.746;4.272;2023-06-19T10:33:37;34.10;90.70
22130;DHT22;11231;50.746;4.272;2023-06-19T10:36:19;34.50;90.40
22130;DHT22;11231;50.746;4.272;2023-06-19T10:38:45;34.00;91.10
22130;DHT22;11231;50.746;4.272;2023-06-19T10:41:19;33.50;91.10
22130;DHT22;11231;50.746;4.272;2023-06-19T10:44:04;33.80;90.20
22130;DHT22;11231;50.746;4.272;2023-06-19T10:46:34;33.80;90.80
22130;DHT22;11231;50.746;4.272;2023-06-19T10:49:05;34.10;90.50
22130;DHT22;11231;50.746;4.272;2023-06-19T10:51:34;34.60;90.20
22130;DHT22;11231;50.746;4.272;2023-06-19T10:54:00;35.60;88.10
22130;DHT22;11231;50.746;4.272;2023-06-19T10:56:26;36.30;86.40
22130;DHT22;11231;50.746;4.272;2023-06-19T10:59:01;37.30;82.70
22130;DHT22;11231;50.746;4.272;2023-06-19T11:01:34;37.20;80.90
22130;DHT22;11231;50.746;4.272;2023-06-19T11:04:03;37.50;79.40
22130;DHT22;11231;50.746;4.272;2023-06-19T11:06:28;37.90;75.70
22130;DHT22;11231;50.746;4.272;2023-06-19T11:08:57;38.70;75.00
22130;DHT22;11231;50.746;4.272;2023-06-19T11:11:23;38.90;72.70
22130;DHT22;11231;50.746;4.272;2023-06-19T11:13:48;39.60;71.00
22130;DHT22;11231;50.746;4.272;2023-06-19T11:16:14;40.00;71.10
22130;DHT22;11231;50.746;4.272;2023-06-19T11:18:40;39.30;68.00
22130;DHT22;11231;50.746;4.272;2023-06-19T11:21:06;39.50;71.00
22130;DHT22;11231;50.746;4.272;2023-06-19T11:23:31;39.60;67.10
22130;DHT22;11231;50.746;4.272;2023-06-19T11:26:06;39.30;68.50
22130;DHT22;11231;50.746;4.272;2023-06-19T11:28:32;39.50;66.80
22130;DHT22;11231;50.746;4.272;2023-06-19T11:31:02;38.20;67.40
22130;DHT22;11231;50.746;4.272;2023-06-19T11:33:29;38.20;68.40
22130;DHT22;11231;50.746;4.272;2023-06-19T11:36:00;38.30;65.70
22130;DHT22;11231;50.746;4.272;2023-06-19T11:38:26;38.80;64.90
22130;DHT22;11231;50.746;4.272;2023-06-19T11:40:54;38.60;63.10
22130;DHT22;11231;50.746;4.272;2023-06-19T11:43:31;38.50;63.90
22130;DHT22;11231;50.746;4.272;2023-06-19T11:46:06;38.80;64.30
22130;DHT22;11231;50.746;4.272;2023-06-19T11:48:32;39.20;59.60
22130;DHT22;11231;50.746;4.272;2023-06-19T11:50:58;39.30;56.90
22130;DHT22;11231;50.746;4.272;2023-06-19T11:53:24;40.10;58.50
22130;DHT22;11231;50.746;4.272;2023-06-19T11:55:51;38.60;56.50
22130;DHT22;11231;50.746;4.272;2023-06-19T11:58:17;38.40;60.30
22130;DHT22;11231;50.746;4.272;2023-06-19T12:00:46;38.60;59.40
22130;DHT22;11231;50.746;4.272;2023-06-19T12:03:11;38.50;63.30
22130;DHT22;11231;50.746;4.272;2023-06-19T12:05:37;37.10;58.90
22130;DHT22;11231;50.746;4.272;2023-06-19T12:08:03;35.30;59.70
22130;DHT22;11231;50.746;4.272;2023-06-19T12:10:30;34.20;64.20
22130;DHT22;11231;50.746;4.272;2023-06-19T12:12:56;33.40;67.10
22130;DHT22;11231;50.746;4.272;2023-06-19T12:15:22;33.10;67.80
22130;DHT22;11231;50.746;4.272;2023-06-19T12:17:48;31.90;68.40
22130;DHT22;11231;50.746;4.272;2023-06-19T12:20:13;30.70;69.00
22130;DHT22;11231;50.746;4.272;2023-06-19T12:22:39;30.40;68.60
22130;DHT22;11231;50.746;4.272;2023-06-19T12:25:05;29.70;73.90
22130;DHT22;11231;50.746;4.272;2023-06-19T12:27:31;29.90;75.90
22130;DHT22;11231;50.746;4.272;2023-06-19T12:29:57;29.80;74.70
22130;DHT22;11231;50.746;4.272;2023-06-19T12:32:23;29.70;76.20
22130;DHT22;11231;50.746;4.272;2023-06-19T12:34:49;29.90;78.50
22130;DHT22;11231;50.746;4.272;2023-06-19T12:37:20;30.20;77.80
22130;DHT22;11231;50.746;4.272;2023-06-19T12:39:47;29.90;77.10
22130;DHT22;11231;50.746;4.272;2023-06-19T12:42:13;29.50;79.40
22130;DHT22;11231;50.746;4.272;2023-06-19T12:44:42;29.90;82.10
22130;DHT22;11231;50.746;4.272;2023-06-19T12:47:10;29.70;81.80
22130;DHT22;11231;50.746;4.272;2023-06-19T12:49:36;29.60;83.10
22130;DHT22;11231;50.746;4.272;2023-06-19T12:52:02;29.30;83.20
22130;DHT22;11231;50.746;4.272;2023-06-19T12:54:28;29.40;82.50
22130;DHT22;11231;50.746;4.272;2023-06-19T12:56:54;29.50;83.70
22130;DHT22;11231;50.746;4.272;2023-06-19T12:59:20;29.60;82.30
22130;DHT22;11231;50.746;4.272;2023-06-19T13:01:46;29.70;83.90
22130;DHT22;11231;50.746;4.272;2023-06-19T13:04:13;29.80;83.50
22130;DHT22;11231;50.746;4.272;2023-06-19T13:06:40;29.90;87.30
22130;DHT22;11231;50.746;4.272;2023-06-19T13:09:06;30.10;86.00
22130;DHT22;11231;50.746;4.272;2023-06-19T13:11:33;30.20;85.70
22130;DHT22;11231;50.746;4.272;2023-06-19T13:14:01;29.90;82.80
22130;DHT22;11231;50.746;4.272;2023-06-19T13:16:27;29.90;84.20
22130;DHT22;11231;50.746;4.272;2023-06-19T13:18:53;30.00;86.50
22130;DHT22;11231;50.746;4.272;2023-06-19T13:21:19;30.00;85.50
22130;DHT22;11231;50.746;4.272;2023-06-19T13:23:45;30.00;86.70
22130;DHT22;11231;50.746;4.272;2023-06-19T13:26:10;29.60;86.40
22130;DHT22;11231;50.746;4.272;2023-06-19T13:28:36;29.20;87.40
22130;DHT22;11231;50.746;4.272;2023-06-19T13:31:03;28.60;88.90
22130;DHT22;11231;50.746;4.272;2023-06-19T13:33:29;28.60;90.80
22130;DHT22;11231;50.746;4.272;2023-06-19T13:35:54;28.40;90.10
22130;DHT22;11231;50.746;4.272;2023-06-19T13:38:20;28.50;90.50
22130;DHT22;11231;50.746;4.272;2023-06-19T13:40:47;28.70;90.30
22130;DHT22;11231;50.746;4.272;2023-06-19T13:43:13;28.60;90.00
22130;DHT22;11231;50.746;4.272;2023-06-19T13:45:40;28.70;88.60
22130;DHT22;11231;50.746;4.272;2023-06-19T13:48:06;28.70;89.30
22130;DHT22;11231;50.746;4.272;2023-06-19T13:50:32;28.80;90.40
22130;DHT22;11231;50.746;4.272;2023-06-19T13:52:59;29.10;91.30
22130;DHT22;11231;50.746;4.272;2023-06-19T13:55:24;29.50;91.30
22130;DHT22;11231;50.746;4.272;2023-06-19T13:57:50;29.80;90.00
22130;DHT22;11231;50.746;4.272;2023-06-19T14:00:16;30.00;89.10
22130;DHT22;11231;50.746;4.272;2023-06-19T14:02:42;30.20;86.80
22130;DHT22;11231;50.746;4.272;2023-06-19T14:05:09;30.10;87.90
22130;DHT22;11231;50.746;4.272;2023-06-19T14:07:35;30.10;86.50
22130;DHT22;11231;50.746;4.272;2023-06-19T14:10:02;30.20;89.10
22130;DHT22;11231;50.746;4.272;2023-06-19T14:12:28;30.20;87.90
22130;DHT22;11231;50.746;4.272;2023-06-19T14:14:54;30.40;88.20
22130;DHT22;11231;50.746;4.272;2023-06-19T14:17:24;30.20;86.10
22130;DHT22;11231;50.746;4.272;2023-06-19T14:19:50;30.10;86.70
22130;DHT22;11231;50.746;4.272;2023-06-19T14:22:16;30.00;90.20
22130;DHT22;11231;50.746;4.272;2023-06-19T14:24:42;30.20;86.80
22130;DHT22;11231;50.746;4.272;2023-06-19T14:27:08;29.90;87.80
22130;DHT22;11231;50.746;4.272;2023-06-19T14:29:34;30.10;89.60
22130;DHT22;11231;50.746;4.272;2023-06-19T14:32:00;30.20;90.00
22130;DHT22;11231;50.746;4.272;2023-06-19T14:34:25;30.30;87.00
22130;DHT22;11231;50.746;4.272;2023-06-19T14:36:51;30.40;87.90
22130;DHT22;11231;50.746;4.272;2023-06-19T14:39:17;30.50;87.00
22130;DHT22;11231;50.746;4.272;2023-06-19T14:41:43;30.60;84.50
22130;DHT22;11231;50.746;4.272;2023-06-19T14:44:11;30.70;83.00
22130;DHT22;11231;50.746;4.272;2023-06-19T14:46:36;30.80;85.90
22130;DHT22;11231;50.746;4.272;2023-06-19T14:49:10;30.70;83.40
22130;DHT22;11231;50.746;4.272;2023-06-19T14:51:38;30.60;85.00
22130;DHT22;11231;50.746;4.272;2023-06-19T14:54:04;30.40;85.00
22130;DHT22;11231;50.746;4.272;2023-06-19T14:56:30;30.50;85.40
22130;DHT22;11231;50.746;4.272;2023-06-19T14:58:56;30.50;84.90
22130;DHT22;11231;50.746;4.272;2023-06-19T15:01:21;30.50;85.80
22130;DHT22;11231;50.746;4.272;2023-06-19T15:03:47;30.60;84.70
22130;DHT22;11231;50.746;4.272;2023-06-19T15:06:13;30.60;85.80
22130;DHT22;11231;50.746;4.272;2023-06-19T15:08:39;30.50;84.80
22130;DHT22;11231;50.746;4.272;2023-06-19T15:11:05;30.50;85.60
22130;DHT22;11231;50.746;4.272;2023-06-19T15:13:32;30.50;86.30
22130;DHT22;11231;50.746;4.272;2023-06-19T15:15:58;30.70;87.00
22130;DHT22;11231;50.746;4.272;2023-06-19T15:18:24;30.70;83.80
22130;DHT22;11231;50.746;4.272;2023-06-19T15:20:50;30.70;84.20
22130;DHT22;11231;50.746;4.272;2023-06-19T15:23:16;30.80;86.50
22130;DHT22;11231;50.746;4.272;2023-06-19T15:25:42;30.90;86.20
22130;DHT22;11231;50.746;4.272;2023-06-19T15:28:08;30.80;83.90
22130;DHT22;11231;50.746;4.272;2023-06-19T15:30:34;30.30;83.40
22130;DHT22;11231;50.746;4.272;2023-06-19T15:32:59;30.00;85.80
22130;DHT22;11231;50.746;4.272;2023-06-19T15:35:25;30.00;86.00